Список аэропортов
Фактическая погода:

18 октября, 10:00
Температура: +8°C (+6.8*)
Ветер: западный 2 м/с
Давление: *765 мм
несуществ. обл. дымка
Время (МСК)Темп. СВетерВлажностьДавлениеОблачностьОсадки
09:00+6З, 2 м/с98%1021 гПамалооблачно
10:00+7З, 1 м/с94%1021 гПамалооблачно
11:00+10СЗ, 1 м/с84%1021 гПамалооблачно
12:00+13СЗ, 1 м/с73%1021 гПаясно
13:00+15СЗ, 2 м/с64%1020 гПаясно
14:00+17С, 2 м/с57%1020 гПаясно
15:00+18С, 2 м/с53%1019 гПаясно
16:00+18С, 2 м/с51%1019 гПаясно
17:00+19С, 3 м/с50%1019 гПаясно
18:00+18С, 3 м/с51%1019 гПамалооблачно
19:00+17С, 2 м/с57%1020 гПас прояснениями
20:00+16СЗ, 3 м/с62%1020 гПамалооблачно
21:00+15СЗ, 3 м/с66%1021 гПаясно
22:00+14СЗ, 3 м/с71%1021 гПаясно
23:00+13СЗ, 3 м/с75%1022 гПас прояснениями
19 октября
00:00+12СЗ, 3 м/с79%1022 гПас прояснениями
01:00+12СЗ, 3 м/с83%1023 гПамалооблачно
02:00+11СЗ, 3 м/с88%1023 гПас прояснениями
03:00+10СЗ, 3 м/с93%1023 гПамалооблачно
04:00+10СЗ, 3 м/с97%1023 гПамалооблачно
05:00+10СЗ, 3 м/с99%1023 гПас прояснениями
06:00+10СЗ, 3 м/с99%1023 гПаоблачно
07:00+10СЗ, 3 м/с98%1023 гПаоблачно
08:00+10СЗ, 3 м/с98%1023 гПаоблачно
09:00+10С, 4 м/с96%1024 гПаоблачно
10:00+11С, 3 м/с95%1024 гПаоблачно
11:00+12С, 3 м/с88%1024 гПас прояснениями
12:00+13С, 3 м/с78%1024 гПамалооблачно
13:00+15С, 3 м/с69%1024 гПаясно
14:00+16С, 2 м/с61%1024 гПаясно
15:00+17СВ, 2 м/с56%1024 гПаясно
16:00+18СВ, 2 м/с54%1023 гПамалооблачно
17:00+18С, 2 м/с54%1023 гПамалооблачно
18:00+17С, 3 м/с56%1023 гПамалооблачно
19:00+16С, 3 м/с63%1024 гПамалооблачно
20:00+14С, 2 м/с73%1024 гПаясно
21:00+13С, 2 м/с81%1025 гПамалооблачно
22:00+11СЗ, 2 м/с88%1025 гПамалооблачно
23:00+10СЗ, 2 м/с94%1026 гПамалооблачно
20 октября
00:00+10СЗ, 2 м/с95%1026 гПас прояснениями
01:00+10СЗ, 2 м/с97%1027 гПас прояснениями
02:00+8СЗ, 1 м/с99%1027 гПамалооблачно
03:00+8З, 2 м/с100%1027 гПаоблачно
04:00+7З, 2 м/с100%1027 гПаоблачно
05:00+7З, 2 м/с100%1028 гПаоблачно
06:00+7З, 2 м/с100%1028 гПаоблачно
07:00+7З, 1 м/с99%1028 гПаоблачно
08:00+8ЮЗ, 1 м/с98%1028 гПаоблачно
09:00+7ЮЗ, 1 м/с98%1028 гПаоблачно